sensor_id;sensor_type;location;lat;lon;timestamp;pressure;altitude;pressure_sealevel;temperature;humidity
5126;BME280;63008;53.112;8.896;2023-04-05T00:00:25;102571.47;;;2.11;70.74
5126;BME280;63008;53.112;8.896;2023-04-05T00:02:26;102575.13;;;2.17;69.56
5126;BME280;63008;53.112;8.896;2023-04-05T00:04:29;102578.75;;;1.99;69.11
5126;BME280;63008;53.112;8.896;2023-04-05T00:06:34;102565.81;;;2.01;69.14
5126;BME280;63008;53.112;8.896;2023-04-05T00:08:35;102566.28;;;1.98;68.74
5126;BME280;63008;53.112;8.896;2023-04-05T00:10:36;102569.66;;;1.94;68.75
5126;BME280;63008;53.112;8.896;2023-04-05T00:12:37;102565.22;;;2.11;69.93
5126;BME280;63008;53.112;8.896;2023-04-05T00:14:38;102564.16;;;2.00;68.65
5126;BME280;63008;53.112;8.896;2023-04-05T00:16:40;102569.88;;;1.92;69.63
5126;BME280;63008;53.112;8.896;2023-04-05T00:18:41;102564.53;;;2.04;71.26
5126;BME280;63008;53.112;8.896;2023-04-05T00:20:49;102569.22;;;2.08;69.76
5126;BME280;63008;53.112;8.896;2023-04-05T00:22:53;102557.09;;;1.99;70.54
5126;BME280;63008;53.112;8.896;2023-04-05T00:24:54;102554.38;;;1.88;69.71
5126;BME280;63008;53.112;8.896;2023-04-05T00:26:56;102558.53;;;1.73;70.07
5126;BME280;63008;53.112;8.896;2023-04-05T00:28:57;102559.25;;;1.68;70.37
5126;BME280;63008;53.112;8.896;2023-04-05T00:30:58;102562.53;;;1.59;70.14
5126;BME280;63008;53.112;8.896;2023-04-05T00:32:59;102556.63;;;1.50;70.24
5126;BME280;63008;53.112;8.896;2023-04-05T00:35:00;102568.06;;;1.64;70.47
5126;BME280;63008;53.112;8.896;2023-04-05T00:37:01;102557.91;;;1.59;69.96
5126;BME280;63008;53.112;8.896;2023-04-05T00:39:02;102561.22;;;1.61;70.29
5126;BME280;63008;53.112;8.896;2023-04-05T00:41:03;102560.94;;;1.80;70.98
5126;BME280;63008;53.112;8.896;2023-04-05T00:43:04;102559.19;;;1.86;71.36
5126;BME280;63008;53.112;8.896;2023-04-05T00:45:06;102562.81;;;1.91;71.58
5126;BME280;63008;53.112;8.896;2023-04-05T00:47:07;102564.53;;;1.74;71.12
5126;BME280;63008;53.112;8.896;2023-04-05T00:49:08;102554.63;;;1.57;71.71
5126;BME280;63008;53.112;8.896;2023-04-05T00:51:09;102553.69;;;1.63;72.19
5126;BME280;63008;53.112;8.896;2023-04-05T00:53:11;102555.59;;;1.63;72.18
5126;BME280;63008;53.112;8.896;2023-04-05T00:55:13;102556.91;;;1.72;72.67
5126;BME280;63008;53.112;8.896;2023-04-05T00:57:14;102553.34;;;1.60;71.87
5126;BME280;63008;53.112;8.896;2023-04-05T00:59:16;102550.72;;;1.53;72.15
5126;BME280;63008;53.112;8.896;2023-04-05T01:01:18;102552.69;;;1.46;72.95
5126;BME280;63008;53.112;8.896;2023-04-05T01:03:21;102549.72;;;1.36;73.01
5126;BME280;63008;53.112;8.896;2023-04-05T01:05:46;102545.91;;;1.55;72.76
5126;BME280;63008;53.112;8.896;2023-04-05T01:08:06;102545.78;;;1.50;72.67
5126;BME280;63008;53.112;8.896;2023-04-05T01:10:09;102544.44;;;1.41;72.82
5126;BME280;63008;53.112;8.896;2023-04-05T01:12:17;102539.88;;;1.42;72.86
5126;BME280;63008;53.112;8.896;2023-04-05T01:14:18;102535.47;;;1.29;72.75
5126;BME280;63008;53.112;8.896;2023-04-05T01:16:19;102546.78;;;1.38;74.04
5126;BME280;63008;53.112;8.896;2023-04-05T01:18:20;102539.50;;;1.38;72.96
5126;BME280;63008;53.112;8.896;2023-04-05T01:20:22;102543.94;;;1.33;73.54
5126;BME280;63008;53.112;8.896;2023-04-05T01:25:15;102538.94;;;1.18;73.25
5126;BME280;63008;53.112;8.896;2023-04-05T01:27:30;102535.19;;;1.19;73.76
5126;BME280;63008;53.112;8.896;2023-04-05T01:34:45;102527.00;;;1.26;75.41
5126;BME280;63008;53.112;8.896;2023-04-05T01:36:56;102532.06;;;1.34;75.49
5126;BME280;63008;53.112;8.896;2023-04-05T01:38:58;102527.22;;;1.24;75.12
5126;BME280;63008;53.112;8.896;2023-04-05T01:41:01;102535.47;;;1.29;75.70
5126;BME280;63008;53.112;8.896;2023-04-05T01:43:14;102529.69;;;1.26;74.86
5126;BME280;63008;53.112;8.896;2023-04-05T01:45:15;102533.63;;;1.12;75.11
5126;BME280;63008;53.112;8.896;2023-04-05T01:47:16;102522.34;;;1.15;75.29
5126;BME280;63008;53.112;8.896;2023-04-05T01:49:17;102523.19;;;1.15;74.62
5126;BME280;63008;53.112;8.896;2023-04-05T01:51:18;102523.09;;;1.04;74.70
5126;BME280;63008;53.112;8.896;2023-04-05T01:53:20;102528.91;;;0.89;74.73
5126;BME280;63008;53.112;8.896;2023-04-05T01:55:21;102525.06;;;1.15;74.88
5126;BME280;63008;53.112;8.896;2023-04-05T01:57:22;102518.81;;;1.14;73.33
5126;BME280;63008;53.112;8.896;2023-04-05T01:59:23;102513.72;;;1.06;73.94
5126;BME280;63008;53.112;8.896;2023-04-05T02:01:24;102527.84;;;1.08;75.08
5126;BME280;63008;53.112;8.896;2023-04-05T02:03:25;102509.91;;;1.14;75.56
5126;BME280;63008;53.112;8.896;2023-04-05T02:05:26;102511.41;;;1.10;75.93
5126;BME280;63008;53.112;8.896;2023-04-05T02:07:27;102511.03;;;1.06;75.26
5126;BME280;63008;53.112;8.896;2023-04-05T02:09:28;102512.25;;;0.92;76.07
5126;BME280;63008;53.112;8.896;2023-04-05T02:11:29;102512.75;;;1.01;76.36
5126;BME280;63008;53.112;8.896;2023-04-05T02:13:30;102504.19;;;1.04;76.45
5126;BME280;63008;53.112;8.896;2023-04-05T02:15:31;102507.88;;;1.09;76.61
5126;BME280;63008;53.112;8.896;2023-04-05T02:17:32;102511.31;;;1.16;75.57
5126;BME280;63008;53.112;8.896;2023-04-05T02:19:38;102512.38;;;1.15;75.57
5126;BME280;63008;53.112;8.896;2023-04-05T02:21:45;102503.75;;;1.07;75.50
5126;BME280;63008;53.112;8.896;2023-04-05T02:23:47;102501.94;;;1.01;76.47
5126;BME280;63008;53.112;8.896;2023-04-05T02:25:48;102510.38;;;0.93;76.63
5126;BME280;63008;53.112;8.896;2023-04-05T02:27:49;102507.97;;;0.67;76.52
5126;BME280;63008;53.112;8.896;2023-04-05T02:29:50;102505.59;;;0.59;76.94
5126;BME280;63008;53.112;8.896;2023-04-05T02:31:53;102502.31;;;0.57;76.96
5126;BME280;63008;53.112;8.896;2023-04-05T02:33:55;102510.84;;;0.54;77.09
5126;BME280;63008;53.112;8.896;2023-04-05T02:35:57;102512.66;;;0.78;78.16
5126;BME280;63008;53.112;8.896;2023-04-05T02:37:58;102507.97;;;0.67;77.94
5126;BME280;63008;53.112;8.896;2023-04-05T02:39:59;102505.88;;;0.51;78.54
5126;BME280;63008;53.112;8.896;2023-04-05T02:42:00;102501.84;;;0.60;79.21
5126;BME280;63008;53.112;8.896;2023-04-05T02:44:01;102504.47;;;0.66;79.18
5126;BME280;63008;53.112;8.896;2023-04-05T02:46:02;102507.38;;;0.65;78.93
5126;BME280;63008;53.112;8.896;2023-04-05T02:48:03;102495.91;;;0.51;78.80
5126;BME280;63008;53.112;8.896;2023-04-05T02:50:04;102494.78;;;0.41;78.95
5126;BME280;63008;53.112;8.896;2023-04-05T02:52:06;102496.91;;;0.39;79.04
5126;BME280;63008;53.112;8.896;2023-04-05T02:54:07;102493.66;;;0.48;78.67
5126;BME280;63008;53.112;8.896;2023-04-05T02:56:08;102486.69;;;0.41;78.65
5126;BME280;63008;53.112;8.896;2023-04-05T02:58:09;102497.25;;;0.42;78.65
5126;BME280;63008;53.112;8.896;2023-04-05T03:00:10;102492.09;;;0.41;78.69
5126;BME280;63008;53.112;8.896;2023-04-05T03:02:12;102497.03;;;0.44;78.50
5126;BME280;63008;53.112;8.896;2023-04-05T03:04:13;102493.59;;;0.37;78.50
5126;BME280;63008;53.112;8.896;2023-04-05T03:06:16;102499.06;;;0.30;78.91
5126;BME280;63008;53.112;8.896;2023-04-05T03:08:17;102492.38;;;0.33;78.79
5126;BME280;63008;53.112;8.896;2023-04-05T03:10:20;102490.91;;;0.37;78.96
5126;BME280;63008;53.112;8.896;2023-04-05T03:12:22;102489.00;;;0.37;78.69
5126;BME280;63008;53.112;8.896;2023-04-05T03:14:23;102493.41;;;0.32;78.68
5126;BME280;63008;53.112;8.896;2023-04-05T03:16:24;102495.25;;;0.38;78.47
5126;BME280;63008;53.112;8.896;2023-04-05T03:18:24;102490.72;;;0.32;78.43
5126;BME280;63008;53.112;8.896;2023-04-05T03:20:26;102490.56;;;0.27;78.82
5126;BME280;63008;53.112;8.896;2023-04-05T03:22:27;102483.13;;;0.22;78.91
5126;BME280;63008;53.112;8.896;2023-04-05T03:24:28;102486.06;;;0.21;79.51
5126;BME280;63008;53.112;8.896;2023-04-05T03:26:29;102486.69;;;0.23;79.96
5126;BME280;63008;53.112;8.896;2023-04-05T03:28:30;102489.81;;;0.20;79.65
5126;BME280;63008;53.112;8.896;2023-04-05T03:30:34;102485.91;;;0.16;79.51
5126;BME280;63008;53.112;8.896;2023-04-05T03:32:35;102488.69;;;0.09;79.67
5126;BME280;63008;53.112;8.896;2023-04-05T03:34:36;102493.41;;;0.14;79.77
5126;BME280;63008;53.112;8.896;2023-04-05T03:36:38;102487.19;;;0.13;79.55
5126;BME280;63008;53.112;8.896;2023-04-05T03:38:43;102492.53;;;0.20;79.21
5126;BME280;63008;53.112;8.896;2023-04-05T03:40:45;102482.66;;;0.07;79.07
5126;BME280;63008;53.112;8.896;2023-04-05T03:42:46;102487.69;;;0.04;78.83
5126;BME280;63008;53.112;8.896;2023-04-05T03:44:51;102484.56;;;0.07;79.22
5126;BME280;63008;53.112;8.896;2023-04-05T03:46:52;102487.84;;;0.09;79.37
5126;BME280;63008;53.112;8.896;2023-04-05T03:48:55;102487.41;;;0.12;79.49
5126;BME280;63008;53.112;8.896;2023-04-05T03:50:55;102493.84;;;0.11;79.45
5126;BME280;63008;53.112;8.896;2023-04-05T03:52:57;102490.09;;;0.12;79.14
5126;BME280;63008;53.112;8.896;2023-04-05T03:54:58;102482.25;;;0.10;79.04
5126;BME280;63008;53.112;8.896;2023-04-05T03:56:58;102479.53;;;0.10;79.28
5126;BME280;63008;53.112;8.896;2023-04-05T03:59:00;102481.25;;;0.05;79.10
5126;BME280;63008;53.112;8.896;2023-04-05T04:01:01;102484.16;;;0.03;79.06
5126;BME280;63008;53.112;8.896;2023-04-05T04:03:02;102474.97;;;0.29;78.63
5126;BME280;63008;53.112;8.896;2023-04-05T04:05:04;102480.53;;;0.52;77.91
5126;BME280;63008;53.112;8.896;2023-04-05T04:07:06;102482.34;;;0.58;77.23
5126;BME280;63008;53.112;8.896;2023-04-05T04:09:07;102473.41;;;0.39;77.24
5126;BME280;63008;53.112;8.896;2023-04-05T04:11:08;102481.56;;;0.33;77.61
5126;BME280;63008;53.112;8.896;2023-04-05T04:13:08;102482.03;;;0.30;77.84
5126;BME280;63008;53.112;8.896;2023-04-05T04:15:10;102482.53;;;0.20;77.79
5126;BME280;63008;53.112;8.896;2023-04-05T04:17:27;102470.88;;;0.26;78.02
5126;BME280;63008;53.112;8.896;2023-04-05T04:19:29;102468.91;;;0.33;77.96
5126;BME280;63008;53.112;8.896;2023-04-05T04:21:30;102471.38;;;0.35;78.01
5126;BME280;63008;53.112;8.896;2023-04-05T04:23:33;102469.81;;;0.27;77.63
5126;BME280;63008;53.112;8.896;2023-04-05T04:25:35;102474.69;;;0.19;77.62
5126;BME280;63008;53.112;8.896;2023-04-05T04:27:38;102476.41;;;0.13;77.84
5126;BME280;63008;53.112;8.896;2023-04-05T04:29:39;102479.97;;;0.07;78.10
5126;BME280;63008;53.112;8.896;2023-04-05T04:31:46;102480.81;;;0.08;78.13
5126;BME280;63008;53.112;8.896;2023-04-05T04:33:49;102483.56;;;0.01;78.22
5126;BME280;63008;53.112;8.896;2023-04-05T04:35:50;102479.88;;;-0.04;78.44
5126;BME280;63008;53.112;8.896;2023-04-05T04:37:59;102479.88;;;-0.04;78.32
5126;BME280;63008;53.112;8.896;2023-04-05T04:40:00;102477.41;;;-0.05;78.58
5126;BME280;63008;53.112;8.896;2023-04-05T04:42:04;102481.38;;;-0.08;78.84
5126;BME280;63008;53.112;8.896;2023-04-05T04:44:05;102480.97;;;-0.11;79.18
5126;BME280;63008;53.112;8.896;2023-04-05T04:46:06;102474.75;;;-0.12;79.12
5126;BME280;63008;53.112;8.896;2023-04-05T04:48:11;102475.31;;;-0.03;79.42
5126;BME280;63008;53.112;8.896;2023-04-05T04:50:14;102483.09;;;0.04;79.31
5126;BME280;63008;53.112;8.896;2023-04-05T04:52:15;102477.72;;;0.04;79.07
5126;BME280;63008;53.112;8.896;2023-04-05T04:54:16;102484.41;;;0.02;78.74
5126;BME280;63008;53.112;8.896;2023-04-05T04:56:20;102482.13;;;-0.01;78.41
5126;BME280;63008;53.112;8.896;2023-04-05T04:58:21;102488.41;;;-0.07;78.77
5126;BME280;63008;53.112;8.896;2023-04-05T05:00:23;102475.31;;;-0.03;79.11
5126;BME280;63008;53.112;8.896;2023-04-05T05:02:26;102487.25;;;0.07;79.55
5126;BME280;63008;53.112;8.896;2023-04-05T05:04:27;102481.56;;;0.15;79.47
5126;BME280;63008;53.112;8.896;2023-04-05T05:06:28;102484.31;;;0.08;79.03
5126;BME280;63008;53.112;8.896;2023-04-05T05:08:29;102486.66;;;0.05;79.01
5126;BME280;63008;53.112;8.896;2023-04-05T05:10:30;102491.59;;;0.08;79.19
5126;BME280;63008;53.112;8.896;2023-04-05T05:12:32;102482.25;;;0.10;79.47
5126;BME280;63008;53.112;8.896;2023-04-05T05:14:33;102485.38;;;0.25;78.70
5126;BME280;63008;53.112;8.896;2023-04-05T05:16:33;102481.16;;;0.36;78.76
5126;BME280;63008;53.112;8.896;2023-04-05T05:18:34;102483.00;;;0.35;78.46
5126;BME280;63008;53.112;8.896;2023-04-05T05:20:35;102485.91;;;0.34;78.33
5126;BME280;63008;53.112;8.896;2023-04-05T05:22:37;102474.00;;;0.23;78.18
5126;BME280;63008;53.112;8.896;2023-04-05T05:24:38;102474.00;;;0.23;78.63
5126;BME280;63008;53.112;8.896;2023-04-05T05:26:39;102478.56;;;0.23;78.38
5126;BME280;63008;53.112;8.896;2023-04-05T05:28:40;102486.53;;;0.18;78.24
5126;BME280;63008;53.112;8.896;2023-04-05T05:30:41;102489.13;;;0.24;78.19
5126;BME280;63008;53.112;8.896;2023-04-05T05:32:42;102485.03;;;0.22;78.11
5126;BME280;63008;53.112;8.896;2023-04-05T05:34:43;102488.84;;;0.14;78.40
5126;BME280;63008;53.112;8.896;2023-04-05T05:36:44;102481.78;;;0.13;78.17
5126;BME280;63008;53.112;8.896;2023-04-05T05:38:46;102481.72;;;0.20;78.40
5126;BME280;63008;53.112;8.896;2023-04-05T05:40:47;102486.69;;;0.23;78.33
5126;BME280;63008;53.112;8.896;2023-04-05T05:42:48;102483.47;;;0.32;78.47
5126;BME280;63008;53.112;8.896;2023-04-05T05:44:49;102480.09;;;0.37;78.25
5126;BME280;63008;53.112;8.896;2023-04-05T05:46:50;102475.38;;;0.32;78.42
5126;BME280;63008;53.112;8.896;2023-04-05T05:48:51;102473.66;;;0.38;78.37
5126;BME280;63008;53.112;8.896;2023-04-05T05:50:52;102476.94;;;0.40;78.78
5126;BME280;63008;53.112;8.896;2023-04-05T05:52:54;102483.00;;;0.53;78.82
5126;BME280;63008;53.112;8.896;2023-04-05T05:54:55;102482.09;;;0.59;79.20
5126;BME280;63008;53.112;8.896;2023-04-05T05:56:56;102477.53;;;0.60;78.73
5126;BME280;63008;53.112;8.896;2023-04-05T05:58:57;102478.19;;;0.73;78.09
5126;BME280;63008;53.112;8.896;2023-04-05T06:00:59;102476.94;;;0.76;77.84
5126;BME280;63008;53.112;8.896;2023-04-05T06:03:03;102477.75;;;0.76;77.06
5126;BME280;63008;53.112;8.896;2023-04-05T06:05:04;102481.75;;;0.74;77.13
5126;BME280;63008;53.112;8.896;2023-04-05T06:07:05;102488.13;;;0.79;76.51
5126;BME280;63008;53.112;8.896;2023-04-05T06:09:06;102482.78;;;0.73;75.19
5126;BME280;63008;53.112;8.896;2023-04-05T06:11:15;102482.97;;;0.89;75.08
5126;BME280;63008;53.112;8.896;2023-04-05T06:13:16;102481.00;;;0.96;74.50
5126;BME280;63008;53.112;8.896;2023-04-05T06:15:17;102479.34;;;0.95;74.54
5126;BME280;63008;53.112;8.896;2023-04-05T06:17:18;102481.97;;;1.02;73.73
5126;BME280;63008;53.112;8.896;2023-04-05T06:19:19;102483.97;;;0.95;72.62
5126;BME280;63008;53.112;8.896;2023-04-05T06:21:20;102477.16;;;1.04;73.05
5126;BME280;63008;53.112;8.896;2023-04-05T06:23:21;102477.47;;;1.14;72.41
5126;BME280;63008;53.112;8.896;2023-04-05T06:25:22;102471.97;;;1.20;72.28
5126;BME280;63008;53.112;8.896;2023-04-05T06:27:23;102483.41;;;1.34;72.44
5126;BME280;63008;53.112;8.896;2023-04-05T06:29:24;102475.56;;;1.44;72.05
5126;BME280;63008;53.112;8.896;2023-04-05T06:31:30;102477.72;;;1.53;71.80
5126;BME280;63008;53.112;8.896;2023-04-05T06:33:31;102473.69;;;1.56;71.18
5126;BME280;63008;53.112;8.896;2023-04-05T06:35:32;102483.34;;;1.52;71.06
5126;BME280;63008;53.112;8.896;2023-04-05T06:37:33;102473.97;;;1.66;71.69
5126;BME280;63008;53.112;8.896;2023-04-05T06:39:34;102476.78;;;1.71;70.47
5126;BME280;63008;53.112;8.896;2023-04-05T06:41:35;102479.59;;;1.75;70.07
5126;BME280;63008;53.112;8.896;2023-04-05T06:43:36;102480.34;;;1.82;70.69
5126;BME280;63008;53.112;8.896;2023-04-05T06:45:37;102477.44;;;1.95;70.77
5126;BME280;63008;53.112;8.896;2023-04-05T06:47:38;102481.41;;;2.04;69.33
5126;BME280;63008;53.112;8.896;2023-04-05T06:49:39;102475.41;;;2.02;69.47
5126;BME280;63008;53.112;8.896;2023-04-05T06:51:40;102479.44;;;2.11;69.22
5126;BME280;63008;53.112;8.896;2023-04-05T06:53:41;102483.53;;;2.25;68.97
5126;BME280;63008;53.112;8.896;2023-04-05T06:55:48;102478.81;;;2.32;69.14
5126;BME280;63008;53.112;8.896;2023-04-05T06:57:50;102474.69;;;2.41;68.38
5126;BME280;63008;53.112;8.896;2023-04-05T06:59:51;102475.97;;;2.50;68.70
5126;BME280;63008;53.112;8.896;2023-04-05T07:01:53;102473.94;;;2.57;68.26
5126;BME280;63008;53.112;8.896;2023-04-05T07:03:53;102472.53;;;2.66;67.50
5126;BME280;63008;53.112;8.896;2023-04-05T07:05:59;102476.84;;;2.79;68.15
5126;BME280;63008;53.112;8.896;2023-04-05T07:08:00;102475.75;;;2.91;67.07
5126;BME280;63008;53.112;8.896;2023-04-05T07:10:01;102480.78;;;2.99;66.08
5126;BME280;63008;53.112;8.896;2023-04-05T07:12:04;102476.06;;;3.06;66.29
5126;BME280;63008;53.112;8.896;2023-04-05T07:14:05;102467.28;;;3.16;66.16
5126;BME280;63008;53.112;8.896;2023-04-05T07:16:06;102466.72;;;3.14;65.51
5126;BME280;63008;53.112;8.896;2023-04-05T07:18:07;102466.31;;;3.22;66.23
5126;BME280;63008;53.112;8.896;2023-04-05T07:20:09;102459.09;;;3.27;65.43
5126;BME280;63008;53.112;8.896;2023-04-05T07:22:10;102463.78;;;3.32;65.20
5126;BME280;63008;53.112;8.896;2023-04-05T07:24:11;102458.88;;;3.45;65.74
5126;BME280;63008;53.112;8.896;2023-04-05T07:26:12;102467.22;;;3.55;65.46
5126;BME280;63008;53.112;8.896;2023-04-05T07:28:13;102464.41;;;3.66;64.47
5126;BME280;63008;53.112;8.896;2023-04-05T07:30:14;102469.34;;;3.86;63.31
5126;BME280;63008;53.112;8.896;2023-04-05T07:32:15;102462.94;;;3.92;63.63
5126;BME280;63008;53.112;8.896;2023-04-05T07:34:16;102460.28;;;3.97;62.73
5126;BME280;63008;53.112;8.896;2023-04-05T07:36:17;102456.41;;;4.09;63.25
5126;BME280;63008;53.112;8.896;2023-04-05T07:38:19;102458.22;;;4.20;63.38
5126;BME280;63008;53.112;8.896;2023-04-05T07:40:20;102457.78;;;4.28;62.08
5126;BME280;63008;53.112;8.896;2023-04-05T07:42:21;102453.63;;;4.42;62.28
5126;BME280;63008;53.112;8.896;2023-04-05T07:44:22;102445.34;;;4.54;62.70
5126;BME280;63008;53.112;8.896;2023-04-05T07:46:23;102448.22;;;4.64;62.55
5126;BME280;63008;53.112;8.896;2023-04-05T07:48:24;102454.94;;;4.78;60.23
5126;BME280;63008;53.112;8.896;2023-04-05T07:50:26;102449.34;;;4.89;59.86
5126;BME280;63008;53.112;8.896;2023-04-05T07:52:27;102446.34;;;4.91;59.68
5126;BME280;63008;53.112;8.896;2023-04-05T07:54:30;102455.69;;;4.95;60.00
5126;BME280;63008;53.112;8.896;2023-04-05T07:56:31;102459.00;;;5.02;58.98
5126;BME280;63008;53.112;8.896;2023-04-05T07:58:33;102466.78;;;5.15;59.14
5126;BME280;63008;53.112;8.896;2023-04-05T08:00:34;102464.25;;;5.34;58.54
5126;BME280;63008;53.112;8.896;2023-04-05T08:02:36;102470.06;;;5.43;56.43
5126;BME280;63008;53.112;8.896;2023-04-05T08:04:37;102457.56;;;5.47;57.27
5126;BME280;63008;53.112;8.896;2023-04-05T08:06:38;102462.81;;;5.53;55.49
5126;BME280;63008;53.112;8.896;2023-04-05T08:08:39;102465.56;;;5.58;55.71
5126;BME280;63008;53.112;8.896;2023-04-05T08:10:40;102459.97;;;5.70;53.97
5126;BME280;63008;53.112;8.896;2023-04-05T08:12:41;102459.31;;;5.84;54.74
5126;BME280;63008;53.112;8.896;2023-04-05T08:14:42;102469.16;;;5.90;50.12
5126;BME280;63008;53.112;8.896;2023-04-05T08:16:43;102459.72;;;6.03;50.27
5126;BME280;63008;53.112;8.896;2023-04-05T08:18:44;102462.25;;;6.14;53.87
5126;BME280;63008;53.112;8.896;2023-04-05T08:20:52;102458.31;;;6.37;55.54
5126;BME280;63008;53.112;8.896;2023-04-05T08:22:54;102460.56;;;6.45;50.53
5126;BME280;63008;53.112;8.896;2023-04-05T08:24:55;102452.91;;;6.47;49.99
5126;BME280;63008;53.112;8.896;2023-04-05T08:26:56;102453.47;;;6.49;48.63
5126;BME280;63008;53.112;8.896;2023-04-05T08:28:57;102452.72;;;6.58;48.56
5126;BME280;63008;53.112;8.896;2023-04-05T08:30:57;102444.03;;;6.71;47.88
5126;BME280;63008;53.112;8.896;2023-04-05T08:32:58;102454.72;;;6.83;47.10
5126;BME280;63008;53.112;8.896;2023-04-05T08:34:59;102446.81;;;6.86;47.38
5126;BME280;63008;53.112;8.896;2023-04-05T08:37:00;102446.31;;;6.99;47.69
5126;BME280;63008;53.112;8.896;2023-04-05T08:39:04;102449.09;;;7.19;47.34
5126;BME280;63008;53.112;8.896;2023-04-05T08:41:07;102446.94;;;7.31;45.98
5126;BME280;63008;53.112;8.896;2023-04-05T08:43:17;102444.75;;;7.38;47.02
5126;BME280;63008;53.112;8.896;2023-04-05T08:45:21;102440.94;;;7.39;48.55
5126;BME280;63008;53.112;8.896;2023-04-05T08:47:25;102440.69;;;7.65;49.29
5126;BME280;63008;53.112;8.896;2023-04-05T08:49:27;102435.25;;;7.70;47.43
5126;BME280;63008;53.112;8.896;2023-04-05T08:51:28;102435.50;;;7.89;50.41
5126;BME280;63008;53.112;8.896;2023-04-05T08:53:29;102434.38;;;8.05;45.93
5126;BME280;63008;53.112;8.896;2023-04-05T08:55:30;102428.94;;;8.00;48.71
5126;BME280;63008;53.112;8.896;2023-04-05T08:57:31;102443.94;;;8.32;47.43
5126;BME280;63008;53.112;8.896;2023-04-05T08:59:32;102433.22;;;8.56;46.26
5126;BME280;63008;53.112;8.896;2023-04-05T09:01:42;102445.31;;;9.08;47.56
5126;BME280;63008;53.112;8.896;2023-04-05T09:03:44;102441.19;;;9.87;43.19
5126;BME280;63008;53.112;8.896;2023-04-05T09:05:49;102430.56;;;9.76;43.46
5126;BME280;63008;53.112;8.896;2023-04-05T09:07:51;102434.91;;;10.15;43.02
5126;BME280;63008;53.112;8.896;2023-04-05T09:09:53;102432.09;;;10.49;41.08
5126;BME280;63008;53.112;8.896;2023-04-05T09:11:55;102437.16;;;11.02;39.08
5126;BME280;63008;53.112;8.896;2023-04-05T09:13:57;102438.97;;;10.70;39.67
5126;BME280;63008;53.112;8.896;2023-04-05T09:16:00;102437.44;;;10.59;40.95
5126;BME280;63008;53.112;8.896;2023-04-05T09:18:01;102437.69;;;10.62;40.87
5126;BME280;63008;53.112;8.896;2023-04-05T09:20:02;102430.44;;;10.71;42.12
5126;BME280;63008;53.112;8.896;2023-04-05T09:22:05;102431.53;;;11.30;40.14
5126;BME280;63008;53.112;8.896;2023-04-05T09:24:06;102431.25;;;11.69;38.48
5126;BME280;63008;53.112;8.896;2023-04-05T09:26:17;102435.94;;;11.13;39.81
5126;BME280;63008;53.112;8.896;2023-04-05T09:28:18;102427.84;;;11.58;37.89
5126;BME280;63008;53.112;8.896;2023-04-05T09:30:20;102435.75;;;11.78;36.10
5126;BME280;63008;53.112;8.896;2023-04-05T09:32:24;102430.41;;;11.68;39.86
5126;BME280;63008;53.112;8.896;2023-04-05T09:34:29;102421.13;;;11.83;36.70
5126;BME280;63008;53.112;8.896;2023-04-05T09:36:32;102424.69;;;12.69;35.14
5126;BME280;63008;53.112;8.896;2023-04-05T09:38:44;102421.19;;;11.78;35.06
5126;BME280;63008;53.112;8.896;2023-04-05T09:40:48;102416.31;;;11.01;37.53
5126;BME280;63008;53.112;8.896;2023-04-05T09:42:50;102413.50;;;11.24;39.00
5126;BME280;63008;53.112;8.896;2023-04-05T09:44:57;102414.00;;;11.95;36.12
5126;BME280;63008;53.112;8.896;2023-04-05T09:47:16;102414.84;;;11.64;37.61
5126;BME280;63008;53.112;8.896;2023-04-05T09:49:31;102414.75;;;10.95;36.69
5126;BME280;63008;53.112;8.896;2023-04-05T09:51:35;102408.19;;;11.46;45.00
5126;BME280;63008;53.112;8.896;2023-04-05T09:53:36;102414.66;;;11.55;39.51
5126;BME280;63008;53.112;8.896;2023-04-05T09:55:37;102401.91;;;12.10;39.40
5126;BME280;63008;53.112;8.896;2023-04-05T09:57:40;102401.94;;;12.77;36.92
5126;BME280;63008;53.112;8.896;2023-04-05T09:59:46;102401.63;;;12.11;36.46
5126;BME280;63008;53.112;8.896;2023-04-05T10:01:50;102395.69;;;12.04;36.09
5126;BME280;63008;53.112;8.896;2023-04-05T10:03:51;102394.25;;;12.07;38.84
5126;BME280;63008;53.112;8.896;2023-04-05T10:05:55;102390.91;;;12.90;36.05
5126;BME280;63008;53.112;8.896;2023-04-05T10:07:56;102392.94;;;12.98;35.52
5126;BME280;63008;53.112;8.896;2023-04-05T10:10:00;102391.50;;;13.36;33.67
5126;BME280;63008;53.112;8.896;2023-04-05T10:12:02;102386.91;;;12.02;35.48
5126;BME280;63008;53.112;8.896;2023-04-05T10:14:06;102389.28;;;11.26;37.23
5126;BME280;63008;53.112;8.896;2023-04-05T10:16:10;102381.91;;;11.22;39.25
5126;BME280;63008;53.112;8.896;2023-04-05T10:18:17;102373.91;;;11.76;35.64
5126;BME280;63008;53.112;8.896;2023-04-05T10:20:22;102383.47;;;12.24;34.03
5126;BME280;63008;53.112;8.896;2023-04-05T10:22:35;102376.13;;;11.60;32.78
5126;BME280;63008;53.112;8.896;2023-04-05T10:24:47;102381.34;;;12.07;35.02
5126;BME280;63008;53.112;8.896;2023-04-05T10:27:04;102386.44;;;12.81;32.82
5126;BME280;63008;53.112;8.896;2023-04-05T10:29:11;102379.09;;;11.64;36.39
5126;BME280;63008;53.112;8.896;2023-04-05T10:31:30;102379.00;;;12.95;33.05
5126;BME280;63008;53.112;8.896;2023-04-05T10:33:39;102376.09;;;13.00;34.21
5126;BME280;63008;53.112;8.896;2023-04-05T10:35:54;102375.78;;;13.59;32.92
5126;BME280;63008;53.112;8.896;2023-04-05T10:40:22;102380.59;;;13.53;33.75
5126;BME280;63008;53.112;8.896;2023-04-05T10:42:26;102373.03;;;11.94;37.43
5126;BME280;63008;53.112;8.896;2023-04-05T10:44:31;102372.84;;;12.98;31.99
5126;BME280;63008;53.112;8.896;2023-04-05T10:46:33;102375.41;;;12.81;36.55
5126;BME280;63008;53.112;8.896;2023-04-05T10:48:45;102370.00;;;12.63;38.98
5126;BME280;63008;53.112;8.896;2023-04-05T10:50:48;102372.31;;;13.09;34.98
5126;BME280;63008;53.112;8.896;2023-04-05T10:52:50;102367.06;;;13.43;33.67
5126;BME280;63008;53.112;8.896;2023-04-05T10:54:52;102365.69;;;13.32;37.36
5126;BME280;63008;53.112;8.896;2023-04-05T10:56:56;102375.22;;;14.23;32.12
5126;BME280;63008;53.112;8.896;2023-04-05T10:58:58;102369.63;;;13.18;33.31
5126;BME280;63008;53.112;8.896;2023-04-05T11:01:00;102367.41;;;13.72;34.05
5126;BME280;63008;53.112;8.896;2023-04-05T11:03:02;102360.25;;;13.93;37.42
5126;BME280;63008;53.112;8.896;2023-04-05T11:05:03;102360.22;;;13.63;35.02